Aviation Digital Data Service (ADDS)

Output produced by METARs form (1346 UTC 21 November 2017)
found at http://www.aviationweather.gov/adds/metars/
 
KSEG 211253Z AUTO 00000KT 10SM CLR M03/M03 A3007 RMK AO2 SLP186 T10281033
KSEG 211153Z AUTO 00000KT 10SM CLR M04/M06 A3006 RMK AO2 SLP185 I1000 I6000 T10441056 11017 21044 56002 $
KSEG 211053Z AUTO 00000KT 10SM CLR M04/M04 A3007 RMK AO2 SLP187 I1000 T10391044 $
KSEG 210953Z AUTO 00000KT 10SM CLR M03/M04 A3006 RMK AO2 SLP183 I1000 T10331044 $
KSEG 210853Z AUTO 00000KT 10SM CLR M03/M04 A3007 RMK AO2 SLP186 T10331039 58007 $
KSEG 210753Z AUTO 00000KT 10SM CLR M03/M04 A3008 RMK AO2 SLP190 T10281039 $
KSEG 210653Z AUTO 00000KT 10SM CLR M03/M04 A3009 RMK AO2 SLP193 T10281039 $
KSEG 210553Z AUTO 00000KT 10SM CLR M03/M04 A3009 RMK AO2 SLP193 T10281039 10044 21028 58005 $
KSEG 210453Z AUTO 00000KT 10SM CLR M02/M04 A3010 RMK AO2 SLP196 T10171039 400831017 $
KSEG 210353Z AUTO 00000KT 10SM CLR M01/M03 A3011 RMK AO2 SLP199 T10111033 $
KSEG 210253Z AUTO 00000KT 10SM CLR M01/M03 A3011 RMK AO2 SLP199 T10111033 53003 $
KSEG 210153Z AUTO 22004KT 10SM CLR 03/M04 A3010 RMK AO2 SLP197 T00281039 $
KSEG 210053Z AUTO 25003KT 10SM CLR 04/M04 A3010 RMK AO2 SLP197 T00391039 $
KSEG 202353Z AUTO 00000KT 10SM CLR 04/M04 A3010 RMK AO2 SLP196 T00441044 10083 20028 53006 $
KSEG 202253Z AUTO 26003KT 10SM CLR 04/M03 A3009 RMK AO2 SLP194 T00391033 $
KSEG 202153Z AUTO 23004KT 10SM CLR 06/M04 A3008 RMK AO2 SLP190 T00611039 $
KSEG 202053Z AUTO 24007KT 10SM CLR 08/M04 A3008 RMK AO2 SLP189 T00781044 53001 $
KSEG 201953Z AUTO 23009KT 10SM CLR 07/M04 A3007 RMK AO2 SLP186 T00721039 $
KSEG 201853Z AUTO 24007KT 10SM CLR 07/M03 A3008 RMK AO2 SLP189 T00721033 $
KSEG 201753Z AUTO 25008KT 10SM CLR 07/M03 A3008 RMK AO2 SLP187 T00671033 10067 20017 58015 $
KSEG 201653Z AUTO 28007KT 10SM CLR 06/M03 A3009 RMK AO2 SLP193 T00611033 $
KSEG 201553Z AUTO 29008G15KT 10SM OVC042 04/M04 A3012 RMK AO2 SLP202 T00441039 $
KSEG 201453Z AUTO VRB06KT 10SM OVC041 03/M04 A3012 RMK AO2 SLP203 T00331044 51016 $
KSEG 201353Z AUTO 24003KT 10SM OVC040 02/M05 A3011 RMK AO2 SLP200 T00221050 $
KSEG 201253Z AUTO 26004KT 10SM OVC048 02/M06 A3010 RMK AO2 SLP195 T00221061
KSEG 201153Z AUTO 27007KT 240V310 10SM OVC049 02/M06 A3007 RMK AO2 SLP187 T00221056 10022 20011 53028 $
KSEG 201053Z AUTO 28007KT 10SM BKN043 OVC050 02/M05 A3004 RMK AO2 SLP177 T00221050 $
KSEG 200953Z AUTO VRB05KT 10SM SCT042 BKN055 02/M05 A3002 RMK AO2 SLP168 T00171050 $
KSEG 200853Z AUTO 28008G15KT 240V310 10SM OVC044 02/M05 A2999 RMK AO2 SLP157 T00171050 51022 $
KSEG 200753Z AUTO 27007KT 10SM BKN036 OVC075 02/M04 A2997 RMK AO2 SLP153 T00171039 $
KSEG 200653Z AUTO 25004KT 10SM BKN070 01/M04 A2995 RMK AO2 SLP145 T00111039 $
KSEG 200553Z AUTO 26008KT 230V300 10SM CLR 02/M04 A2992 RMK AO2 SLP135 60000 T00171044 10039 20017 53022 $
KSEG 200453Z AUTO 28009KT 10SM FEW060 02/M04 A2989 RMK AO2 SNE0359 SLP124 P0000 T00221039 401220022 $
KSEG 200353Z AUTO 28012G21KT 9SM -SN SCT043 BKN055 BKN075 03/M03 A2988 RMK AO2 SNB50 SLP121 P0000 T00281028 $
KSEG 200253Z AUTO VRB06KT 10SM FEW041 OVC090 03/M03 A2986 RMK AO2 SLP113 T00331028 51022 $
KSEG 200153Z AUTO 26004KT 10SM SCT042 OVC095 03/M02 A2984 RMK AO2 SLP106 T00331022 $